createdAt,value
2017-08-28T00:00:43.614Z,0
2017-08-28T00:01:45.560Z,0
2017-08-28T00:02:47.272Z,0
2017-08-28T00:03:48.968Z,0
2017-08-28T00:04:50.445Z,0
2017-08-28T00:05:52.096Z,0
2017-08-28T00:06:53.682Z,0
2017-08-28T00:07:55.336Z,0
2017-08-28T00:08:57.039Z,0
2017-08-28T00:09:58.539Z,0
2017-08-28T00:11:00.249Z,0
2017-08-28T00:12:01.962Z,0
2017-08-28T00:13:03.494Z,0
2017-08-28T00:14:05.090Z,0
2017-08-28T00:15:06.922Z,0
2017-08-28T00:16:08.409Z,0
2017-08-28T00:17:09.957Z,0
2017-08-28T00:18:11.500Z,0
2017-08-28T00:19:13.215Z,0
2017-08-28T00:20:14.952Z,0
2017-08-28T00:21:16.783Z,0
2017-08-28T00:22:18.390Z,0
2017-08-28T00:23:20.107Z,0
2017-08-28T00:24:21.763Z,0
2017-08-28T00:25:23.522Z,0
2017-08-28T00:26:25.177Z,0
2017-08-28T00:27:26.792Z,0
2017-08-28T00:28:28.330Z,0
2017-08-28T00:29:29.948Z,0
2017-08-28T00:30:31.661Z,0
2017-08-28T00:31:33.275Z,0
2017-08-28T00:32:34.828Z,0
2017-08-28T00:33:36.556Z,0
2017-08-28T00:34:38.146Z,0
2017-08-28T00:35:39.805Z,0
2017-08-28T00:36:41.537Z,0
2017-08-28T00:37:43.155Z,0
2017-08-28T00:38:44.685Z,0
2017-08-28T00:39:46.369Z,0
2017-08-28T00:40:48.088Z,0
2017-08-28T00:41:49.828Z,0
2017-08-28T00:42:51.271Z,0
2017-08-28T00:43:52.894Z,0
2017-08-28T00:44:54.428Z,0
2017-08-28T00:45:56.090Z,0
2017-08-28T00:46:57.606Z,0
2017-08-28T00:47:59.277Z,0
2017-08-28T00:49:00.842Z,0
2017-08-28T00:50:02.557Z,0
2017-08-28T00:51:04.043Z,0
2017-08-28T00:52:05.630Z,0
2017-08-28T00:53:07.169Z,0
2017-08-28T00:54:08.721Z,0
2017-08-28T00:55:10.310Z,0
2017-08-28T00:56:11.860Z,0
2017-08-28T00:57:13.470Z,0
2017-08-28T00:58:15.039Z,0
2017-08-28T00:59:16.619Z,0
2017-08-28T01:00:18.150Z,0
2017-08-28T01:01:19.715Z,0
2017-08-28T01:02:21.281Z,0
2017-08-28T01:03:22.858Z,0
2017-08-28T01:04:24.400Z,0
2017-08-28T01:05:25.953Z,0
2017-08-28T01:06:27.483Z,0
2017-08-28T01:07:28.905Z,0
2017-08-28T01:08:30.361Z,0
2017-08-28T01:09:31.811Z,0
2017-08-28T01:10:33.376Z,0
2017-08-28T01:11:34.905Z,0
2017-08-28T01:12:36.382Z,0
2017-08-28T01:13:37.894Z,0
2017-08-28T01:14:39.460Z,0
2017-08-28T01:15:40.964Z,0
2017-08-28T01:16:42.511Z,0
2017-08-28T01:17:44.047Z,0
2017-08-28T01:18:45.568Z,0
2017-08-28T01:19:47.076Z,0
2017-08-28T01:20:48.570Z,0
2017-08-28T01:21:50.121Z,0
2017-08-28T01:22:51.633Z,0
2017-08-28T01:23:53.137Z,0
2017-08-28T01:24:54.664Z,0
2017-08-28T01:25:56.262Z,0
2017-08-28T01:26:57.718Z,0
2017-08-28T01:27:59.241Z,0
2017-08-28T01:29:00.727Z,0
2017-08-28T01:30:02.219Z,0
2017-08-28T01:31:03.731Z,0
2017-08-28T01:32:05.285Z,0
2017-08-28T01:33:06.781Z,0
2017-08-28T01:34:08.312Z,0
2017-08-28T01:35:09.810Z,0
2017-08-28T01:36:11.352Z,0
2017-08-28T01:37:12.841Z,0
2017-08-28T01:38:14.376Z,0
2017-08-28T01:39:15.890Z,0
2017-08-28T01:40:17.385Z,0
2017-08-28T01:41:18.896Z,0
2017-08-28T01:42:20.420Z,0
2017-08-28T01:43:22.011Z,0
2017-08-28T01:44:23.555Z,0
2017-08-28T01:45:25.095Z,0
2017-08-28T01:46:26.582Z,0
2017-08-28T01:47:28.106Z,0
2017-08-28T01:48:29.720Z,0
2017-08-28T01:49:31.300Z,0
2017-08-28T01:50:32.829Z,0
2017-08-28T01:51:34.325Z,0
2017-08-28T01:52:35.859Z,0
2017-08-28T01:53:37.361Z,0
2017-08-28T01:54:38.889Z,0
2017-08-28T01:55:40.435Z,0
2017-08-28T01:56:41.972Z,0
2017-08-28T01:57:43.492Z,0
2017-08-28T01:58:45.065Z,0
2017-08-28T01:59:46.614Z,0
2017-08-28T02:00:48.198Z,0
2017-08-28T02:01:49.750Z,0
2017-08-28T02:02:51.238Z,0
2017-08-28T02:03:52.736Z,0
2017-08-28T02:04:54.309Z,0
2017-08-28T02:05:55.947Z,0
2017-08-28T02:06:57.459Z,0
2017-08-28T02:07:58.992Z,0
2017-08-28T02:09:00.458Z,0
2017-08-28T02:10:01.984Z,0
2017-08-28T02:11:03.522Z,0
2017-08-28T02:12:05.087Z,0
2017-08-28T02:13:06.610Z,0
2017-08-28T02:14:08.119Z,0
2017-08-28T02:15:09.693Z,0
2017-08-28T02:16:11.238Z,0
2017-08-28T02:17:12.819Z,0
2017-08-28T02:18:14.358Z,0
2017-08-28T02:19:15.874Z,0
2017-08-28T02:20:17.401Z,0
2017-08-28T02:21:18.930Z,0
2017-08-28T02:22:20.493Z,0
2017-08-28T02:23:21.978Z,0
2017-08-28T02:24:23.482Z,0
2017-08-28T02:25:25.005Z,0
2017-08-28T02:26:26.500Z,0
2017-08-28T02:27:28.175Z,0
2017-08-28T02:28:29.720Z,0
2017-08-28T02:29:31.238Z,0
2017-08-28T02:30:32.747Z,0
2017-08-28T02:31:34.269Z,0
2017-08-28T02:32:35.733Z,0
2017-08-28T02:33:37.193Z,0
2017-08-28T02:34:38.684Z,0
2017-08-28T02:35:40.175Z,0
2017-08-28T02:36:41.657Z,0
2017-08-28T02:37:43.168Z,0
2017-08-28T02:38:44.694Z,0
2017-08-28T02:39:46.211Z,0
2017-08-28T02:40:47.703Z,0
2017-08-28T02:41:49.194Z,0
2017-08-28T02:42:50.725Z,0
2017-08-28T02:43:52.240Z,0
2017-08-28T02:44:53.793Z,0
2017-08-28T02:45:55.316Z,0
2017-08-28T02:46:56.814Z,0
2017-08-28T02:47:58.384Z,0
2017-08-28T02:48:59.902Z,0
2017-08-28T02:50:01.428Z,0
2017-08-28T02:51:02.944Z,0
2017-08-28T02:52:04.427Z,0
2017-08-28T02:53:05.902Z,0
2017-08-28T02:54:07.386Z,0
2017-08-28T02:55:08.846Z,0
2017-08-28T02:56:10.395Z,0
2017-08-28T02:57:11.908Z,0
2017-08-28T02:58:13.395Z,0
2017-08-28T02:59:14.934Z,0
2017-08-28T03:00:16.432Z,0
2017-08-28T03:01:18.007Z,0
2017-08-28T03:02:19.525Z,0
2017-08-28T03:03:20.964Z,0
2017-08-28T03:04:22.481Z,0
2017-08-28T03:05:23.999Z,0
2017-08-28T03:06:25.561Z,0
2017-08-28T03:07:27.083Z,0
2017-08-28T03:08:28.579Z,0
2017-08-28T03:09:30.084Z,0
2017-08-28T03:10:31.597Z,0
2017-08-28T03:11:33.209Z,0
2017-08-28T03:12:34.741Z,0
2017-08-28T03:13:36.250Z,0
2017-08-28T03:14:37.746Z,0
2017-08-28T03:15:39.269Z,0
2017-08-28T03:16:40.804Z,0
2017-08-28T03:17:42.259Z,0
2017-08-28T03:18:43.794Z,0
2017-08-28T03:19:45.276Z,0
2017-08-28T03:20:46.714Z,0
2017-08-28T03:21:48.118Z,0
2017-08-28T03:22:49.631Z,0
2017-08-28T03:23:51.138Z,0
2017-08-28T03:24:52.606Z,0
2017-08-28T03:25:54.137Z,0
2017-08-28T03:26:55.667Z,0
2017-08-28T03:27:57.184Z,0
2017-08-28T03:28:58.704Z,0
2017-08-28T03:30:00.314Z,0
2017-08-28T03:31:01.799Z,0
2017-08-28T03:32:03.315Z,0
2017-08-28T03:33:04.829Z,0
2017-08-28T03:34:06.392Z,0
2017-08-28T03:35:07.933Z,0
2017-08-28T03:36:09.483Z,0
2017-08-28T03:37:10.981Z,0
2017-08-28T03:38:12.508Z,0
2017-08-28T03:39:14.066Z,0
2017-08-28T03:40:15.559Z,0
2017-08-28T03:41:17.148Z,0
2017-08-28T03:42:18.685Z,0
2017-08-28T03:43:20.230Z,0
2017-08-28T03:44:21.790Z,0
2017-08-28T03:45:23.342Z,0
2017-08-28T03:46:24.936Z,0
2017-08-28T03:47:26.478Z,0
2017-08-28T03:48:27.994Z,0
2017-08-28T03:49:29.519Z,0
2017-08-28T03:50:31.050Z,0
2017-08-28T03:51:32.490Z,0
2017-08-28T03:52:34.021Z,0
2017-08-28T03:53:35.423Z,4
2017-08-28T03:54:36.867Z,4
2017-08-28T03:55:38.271Z,0
2017-08-28T03:56:39.682Z,4
2017-08-28T03:57:41.127Z,4
2017-08-28T03:58:42.568Z,4
2017-08-28T03:59:44.001Z,8
2017-08-28T04:00:45.405Z,4
2017-08-28T04:01:46.814Z,4
2017-08-28T04:02:48.294Z,12
2017-08-28T04:03:49.708Z,12
2017-08-28T04:04:51.136Z,12
2017-08-28T04:05:52.566Z,12
2017-08-28T04:06:53.982Z,16
2017-08-28T04:07:55.400Z,20
2017-08-28T04:08:56.920Z,24
2017-08-28T04:09:58.305Z,28
2017-08-28T04:10:59.720Z,32
2017-08-28T04:12:01.154Z,36
2017-08-28T04:13:02.581Z,40
2017-08-28T04:14:04.004Z,48
2017-08-28T04:15:05.413Z,56
2017-08-28T04:16:06.864Z,64
2017-08-28T04:17:08.301Z,68
2017-08-28T04:18:09.697Z,76
2017-08-28T04:19:11.228Z,88
2017-08-28T04:20:12.683Z,96
2017-08-28T04:21:14.102Z,104
2017-08-28T04:22:15.583Z,116
2017-08-28T04:23:17.058Z,128
2017-08-28T04:24:18.528Z,140
2017-08-28T04:25:19.948Z,156
2017-08-28T04:26:21.357Z,168
2017-08-28T04:27:22.774Z,184
2017-08-28T04:28:24.182Z,196
2017-08-28T04:29:25.623Z,216
2017-08-28T04:30:27.088Z,228
2017-08-28T04:31:28.501Z,248
2017-08-28T04:32:29.914Z,264
2017-08-28T04:33:31.379Z,284
2017-08-28T04:34:32.846Z,304
2017-08-28T04:35:34.332Z,324
2017-08-28T04:36:35.774Z,348
2017-08-28T04:37:37.203Z,368
2017-08-28T04:38:38.613Z,388
2017-08-28T04:39:40.103Z,412
2017-08-28T04:40:41.539Z,440
2017-08-28T04:41:42.974Z,460
2017-08-28T04:42:44.422Z,484
2017-08-28T04:43:45.868Z,508
2017-08-28T04:44:47.335Z,532
2017-08-28T04:45:48.749Z,560
2017-08-28T04:46:50.176Z,588
2017-08-28T04:47:51.693Z,612
2017-08-28T04:48:53.140Z,640
2017-08-28T04:49:54.564Z,664
2017-08-28T04:50:56.046Z,688
2017-08-28T04:51:57.508Z,716
2017-08-28T04:52:58.973Z,744
2017-08-28T04:54:00.462Z,772
2017-08-28T04:55:01.923Z,796
2017-08-28T04:56:03.416Z,820
2017-08-28T04:57:04.841Z,844
2017-08-28T04:58:06.288Z,872
2017-08-28T04:59:07.713Z,896
2017-08-28T05:00:09.130Z,920
2017-08-28T05:01:10.582Z,944
2017-08-28T05:02:12.008Z,968
2017-08-28T05:03:13.444Z,988
2017-08-28T05:04:14.902Z,1012
2017-08-28T05:05:16.338Z,1036
2017-08-28T05:06:17.783Z,1060
2017-08-28T05:07:19.234Z,1088
2017-08-28T05:08:20.670Z,1108
2017-08-28T05:09:22.146Z,1132
2017-08-28T05:10:23.602Z,1156
2017-08-28T05:11:25.037Z,1176
2017-08-28T05:12:26.481Z,1204
2017-08-28T05:13:27.925Z,1228
2017-08-28T05:14:29.387Z,1244
2017-08-28T05:15:30.842Z,1268
2017-08-28T05:16:32.302Z,1288
2017-08-28T05:17:33.717Z,1308
2017-08-28T05:18:35.192Z,1328
2017-08-28T05:19:36.628Z,1348
2017-08-28T05:20:38.108Z,1364
2017-08-28T05:21:39.555Z,1384
2017-08-28T05:22:41.067Z,1404
2017-08-28T05:23:42.554Z,1416
2017-08-28T05:24:43.997Z,1440
2017-08-28T05:25:45.526Z,1460
2017-08-28T05:26:47.000Z,1484
2017-08-28T05:27:48.521Z,1508
2017-08-28T05:28:50.082Z,1532
2017-08-28T05:29:51.685Z,1556
2017-08-28T05:30:53.222Z,1584
2017-08-28T05:31:54.737Z,1604
2017-08-28T05:32:56.246Z,1612
2017-08-28T05:33:57.736Z,1636
2017-08-28T05:34:59.207Z,1664
2017-08-28T05:36:00.757Z,1692
2017-08-28T05:37:02.291Z,1712
2017-08-28T05:38:03.879Z,1744
2017-08-28T05:39:05.400Z,1772
2017-08-28T05:40:07.161Z,1784
2017-08-28T05:41:08.758Z,1808
2017-08-28T05:42:10.354Z,1836
2017-08-28T05:43:11.863Z,1852
2017-08-28T05:44:13.374Z,1860
2017-08-28T05:45:14.897Z,1888
2017-08-28T05:46:16.418Z,1904
2017-08-28T05:47:18.028Z,1924
2017-08-28T05:48:19.525Z,1948
2017-08-28T05:49:21.044Z,1988
2017-08-28T05:50:22.544Z,2020
2017-08-28T05:51:23.989Z,2052
2017-08-28T05:52:25.462Z,2100
2017-08-28T05:53:26.935Z,2148
2017-08-28T05:54:28.465Z,2204
2017-08-28T05:55:29.947Z,2272
2017-08-28T05:56:31.434Z,2352
2017-08-28T05:57:32.918Z,2476
2017-08-28T05:58:34.414Z,2648
2017-08-28T05:59:35.912Z,2924
2017-08-28T06:00:37.458Z,3272
2017-08-28T06:01:38.973Z,3556
2017-08-28T06:02:40.566Z,3660
2017-08-28T06:03:42.051Z,3760
2017-08-28T06:04:43.586Z,3800
2017-08-28T06:05:45.132Z,3888
2017-08-28T06:06:46.613Z,3964
2017-08-28T06:07:48.136Z,4000
2017-08-28T06:08:49.643Z,4064
2017-08-28T06:09:51.151Z,4136
2017-08-28T06:10:52.658Z,4164
2017-08-28T06:11:54.163Z,4224
2017-08-28T06:12:55.673Z,4252
2017-08-28T06:13:57.192Z,4288
2017-08-28T06:14:58.699Z,4296
2017-08-28T06:16:00.220Z,4348
2017-08-28T06:17:01.791Z,4408
2017-08-28T06:18:03.328Z,4380
2017-08-28T06:19:04.853Z,4452
2017-08-28T06:20:06.417Z,4508
2017-08-28T06:21:07.962Z,4560
2017-08-28T06:22:09.481Z,4552
2017-08-28T06:23:11.044Z,4540
2017-08-28T06:24:12.538Z,4572
2017-08-28T06:25:14.065Z,4560
2017-08-28T06:26:15.610Z,4472
2017-08-28T06:27:17.103Z,4536
2017-08-28T06:28:18.612Z,4556
2017-08-28T06:29:20.106Z,4564
2017-08-28T06:30:21.691Z,4536
2017-08-28T06:31:23.222Z,4524
2017-08-28T06:32:24.736Z,4572
2017-08-28T06:33:26.213Z,4632
2017-08-28T06:34:27.808Z,4680
2017-08-28T06:35:29.320Z,4656
2017-08-28T06:36:30.914Z,4764
2017-08-28T06:37:32.428Z,4784
2017-08-28T06:38:33.941Z,4768
2017-08-28T06:39:35.438Z,4752
2017-08-28T06:40:36.957Z,4784
2017-08-28T06:41:38.510Z,4932
2017-08-28T06:42:40.115Z,5108
2017-08-28T06:43:41.635Z,4928
2017-08-28T06:44:43.110Z,4772
2017-08-28T06:45:44.653Z,4756
2017-08-28T06:46:46.126Z,4692
2017-08-28T06:47:47.746Z,4644
2017-08-28T06:48:49.247Z,4592
2017-08-28T06:49:50.846Z,4580
2017-08-28T06:50:52.355Z,4608
2017-08-28T06:51:53.847Z,4596
2017-08-28T06:52:55.372Z,4576
2017-08-28T06:53:56.913Z,4540
2017-08-28T06:54:58.414Z,4488
2017-08-28T06:55:59.917Z,4432
2017-08-28T06:57:01.447Z,4352
2017-08-28T06:58:03.001Z,4296
2017-08-28T06:59:04.546Z,4280
2017-08-28T07:00:06.195Z,4304
2017-08-28T07:01:07.698Z,4344
2017-08-28T07:02:09.164Z,4388
2017-08-28T07:03:10.740Z,4432
2017-08-28T07:04:12.293Z,4472
2017-08-28T07:05:13.853Z,4500
2017-08-28T07:06:15.433Z,4556
2017-08-28T07:07:16.974Z,4588
2017-08-28T07:08:18.480Z,4616
2017-08-28T07:09:20.036Z,4660
2017-08-28T07:10:21.557Z,4704
2017-08-28T07:11:23.122Z,4764
2017-08-28T07:12:24.628Z,4840
2017-08-28T07:13:26.280Z,4888
2017-08-28T07:14:27.810Z,4928
2017-08-28T07:15:29.312Z,4844
2017-08-28T07:16:30.795Z,4852
2017-08-28T07:17:32.381Z,4920
2017-08-28T07:18:33.878Z,4968
2017-08-28T07:19:35.378Z,4996
2017-08-28T07:20:36.929Z,5064
2017-08-28T07:21:38.420Z,5104
2017-08-28T07:22:39.975Z,5144
2017-08-28T07:23:41.528Z,5204
2017-08-28T07:24:43.129Z,5276
2017-08-28T07:25:44.693Z,5336
2017-08-28T07:26:46.265Z,5376
2017-08-28T07:27:47.784Z,5412
2017-08-28T07:28:49.307Z,5456
2017-08-28T07:29:50.826Z,5500
2017-08-28T07:30:52.391Z,5544
2017-08-28T07:31:53.926Z,5600
2017-08-28T07:32:55.384Z,5640
2017-08-28T07:33:56.896Z,5684
2017-08-28T07:34:58.484Z,5720
2017-08-28T07:36:00.005Z,5768
2017-08-28T07:37:01.600Z,5812
2017-08-28T07:38:03.171Z,5856
2017-08-28T07:39:04.665Z,5908
2017-08-28T07:40:06.190Z,5952
2017-08-28T07:41:07.701Z,6008
2017-08-28T07:42:09.227Z,6048
2017-08-28T07:43:10.758Z,6084
2017-08-28T07:44:12.251Z,6112
2017-08-28T07:45:13.755Z,6168
2017-08-28T07:46:15.321Z,6200
2017-08-28T07:47:16.883Z,6228
2017-08-28T07:48:18.412Z,6248
2017-08-28T07:49:19.992Z,6256
2017-08-28T07:50:21.541Z,6284
2017-08-28T07:51:23.103Z,6288
2017-08-28T07:52:24.631Z,6316
2017-08-28T07:53:26.195Z,6328
2017-08-28T07:54:27.784Z,6356
2017-08-28T07:55:29.307Z,6412
2017-08-28T07:56:30.903Z,6460
2017-08-28T07:57:32.456Z,6536
2017-08-28T07:58:34.778Z,6508
2017-08-28T07:59:36.276Z,6596
2017-08-28T08:00:37.789Z,6688
2017-08-28T08:01:39.260Z,6732
2017-08-28T08:02:40.823Z,6768
2017-08-28T08:03:42.408Z,6804
2017-08-28T08:04:44.045Z,6840
2017-08-28T08:05:45.560Z,6876
2017-08-28T08:06:47.053Z,6920
2017-08-28T08:07:48.611Z,6960
2017-08-28T08:08:50.172Z,6980
2017-08-28T08:09:51.730Z,7012
2017-08-28T08:10:53.320Z,7028
2017-08-28T08:11:54.904Z,7056
2017-08-28T08:12:56.414Z,7076
2017-08-28T08:13:57.932Z,7092
2017-08-28T08:14:59.461Z,7100
2017-08-28T08:16:00.951Z,7128
2017-08-28T08:17:02.530Z,7164
2017-08-28T08:18:04.023Z,7200
2017-08-28T08:19:05.586Z,7252
2017-08-28T08:20:07.135Z,7308
2017-08-28T08:21:08.620Z,7364
2017-08-28T08:22:10.172Z,7420
2017-08-28T08:23:11.693Z,7464
2017-08-28T08:24:13.233Z,7516
2017-08-28T08:25:14.778Z,7568
2017-08-28T08:26:16.333Z,7624
2017-08-28T08:27:17.906Z,7668
2017-08-28T08:28:19.575Z,7716
2017-08-28T08:29:21.113Z,7788
2017-08-28T08:30:22.598Z,7840
2017-08-28T08:31:24.087Z,7900
2017-08-28T08:32:25.602Z,7960
2017-08-28T08:33:27.118Z,8012
2017-08-28T08:34:28.633Z,8060
2017-08-28T08:35:30.176Z,8116
2017-08-28T08:36:31.722Z,8164
2017-08-28T08:37:33.218Z,8228
2017-08-28T08:38:34.719Z,8296
2017-08-28T08:39:36.278Z,8372
2017-08-28T08:40:37.816Z,8396
2017-08-28T08:41:39.317Z,8456
2017-08-28T08:42:40.808Z,8532
2017-08-28T08:43:42.304Z,8616
2017-08-28T08:44:43.815Z,8692
2017-08-28T08:45:45.320Z,8744
2017-08-28T08:46:46.814Z,8812
2017-08-28T08:47:48.344Z,8900
2017-08-28T08:48:49.893Z,8924
2017-08-28T08:49:51.491Z,8988
2017-08-28T08:50:53.024Z,9056
2017-08-28T08:51:54.522Z,9120
2017-08-28T08:52:56.107Z,9128
2017-08-28T08:53:57.618Z,9144
2017-08-28T08:54:59.103Z,9196
2017-08-28T08:56:00.626Z,9212
2017-08-28T08:57:02.158Z,9236
2017-08-28T08:58:03.699Z,9268
2017-08-28T08:59:05.150Z,9308
2017-08-28T09:00:06.709Z,9324
2017-08-28T09:01:08.232Z,9380
2017-08-28T09:02:09.814Z,9472
2017-08-28T09:03:11.317Z,10196
2017-08-28T09:04:12.903Z,10184
2017-08-28T09:05:14.435Z,10148
2017-08-28T09:06:15.964Z,10152
2017-08-28T09:07:17.491Z,10196
2017-08-28T09:08:19.102Z,10140
2017-08-28T09:09:20.628Z,10132
2017-08-28T09:10:22.152Z,10148
2017-08-28T09:11:23.631Z,10092
2017-08-28T09:12:25.177Z,10056
2017-08-28T09:13:26.720Z,10064
2017-08-28T09:14:28.254Z,9920
2017-08-28T09:15:29.837Z,9960
2017-08-28T09:16:31.348Z,10072
2017-08-28T09:17:32.918Z,10168
2017-08-28T09:18:34.443Z,10128
2017-08-28T09:19:35.985Z,10076
2017-08-28T09:20:37.502Z,10364
2017-08-28T09:21:39.094Z,10232
2017-08-28T09:22:40.659Z,10224
2017-08-28T09:23:42.169Z,10028
2017-08-28T09:24:43.710Z,10476
2017-08-28T09:25:45.295Z,10548
2017-08-28T09:26:46.808Z,8436
2017-08-28T09:27:48.304Z,10292
2017-08-28T09:28:49.821Z,10628
2017-08-28T09:29:51.324Z,10708
2017-08-28T09:30:52.865Z,10736
2017-08-28T09:31:54.422Z,10792
2017-08-28T09:32:56.003Z,10868
2017-08-28T09:33:57.546Z,10968
2017-08-28T09:34:59.105Z,11012
2017-08-28T09:36:00.610Z,11004
2017-08-28T09:37:02.175Z,11100
2017-08-28T09:38:03.736Z,11204
2017-08-28T09:39:05.306Z,11268
2017-08-28T09:40:06.883Z,11388
2017-08-28T09:41:08.434Z,11536
2017-08-28T09:42:09.980Z,11652
2017-08-28T09:43:11.558Z,11780
2017-08-28T09:44:13.065Z,11812
2017-08-28T09:45:14.590Z,11860
2017-08-28T09:46:16.072Z,11860
2017-08-28T09:47:17.585Z,11936
2017-08-28T09:48:19.007Z,12128
2017-08-28T09:49:20.454Z,12208
2017-08-28T09:50:22.014Z,12308
2017-08-28T09:51:23.650Z,12020
2017-08-28T09:52:25.299Z,12080
2017-08-28T09:53:26.802Z,12232
2017-08-28T09:54:28.337Z,12120
2017-08-28T09:55:29.873Z,12476
2017-08-28T09:56:31.410Z,12728
2017-08-28T09:57:32.939Z,12388
2017-08-28T09:58:34.461Z,12612
2017-08-28T09:59:35.973Z,13028
2017-08-28T10:00:37.520Z,13084
2017-08-28T10:01:38.981Z,12744
2017-08-28T10:02:40.475Z,13244
2017-08-28T10:03:42.025Z,13376
2017-08-28T10:04:43.592Z,13536
2017-08-28T10:05:45.159Z,13628
2017-08-28T10:06:46.698Z,13736
2017-08-28T10:07:48.248Z,13568
2017-08-28T10:08:49.837Z,13292
2017-08-28T10:09:51.408Z,13388
2017-08-28T10:10:52.979Z,13344
2017-08-28T10:11:54.544Z,13496
2017-08-28T10:12:56.044Z,13408
2017-08-28T10:13:57.578Z,10376
2017-08-28T10:14:59.062Z,13268
2017-08-28T10:16:00.607Z,12856
2017-08-28T10:17:02.118Z,11996
2017-08-28T10:18:03.663Z,13236
2017-08-28T10:19:05.163Z,13300
2017-08-28T10:20:06.782Z,13408
2017-08-28T10:21:08.276Z,13452
2017-08-28T10:22:10.108Z,13392
2017-08-28T10:23:11.695Z,13564
2017-08-28T10:24:13.273Z,13472
2017-08-28T10:25:14.831Z,13292
2017-08-28T10:26:16.394Z,12940
2017-08-28T10:27:17.921Z,12896
2017-08-28T10:28:19.531Z,12832
2017-08-28T10:29:21.361Z,12796
2017-08-28T10:30:23.032Z,12832
2017-08-28T10:31:24.786Z,12816
2017-08-28T10:32:26.398Z,12808
2017-08-28T10:33:28.042Z,12820
2017-08-28T10:34:29.586Z,12936
2017-08-28T10:35:31.172Z,13048
2017-08-28T10:36:32.900Z,13112
2017-08-28T10:37:34.451Z,13424
2017-08-28T10:38:36.081Z,13732
2017-08-28T10:39:37.792Z,13940
2017-08-28T10:40:39.280Z,14128
2017-08-28T10:41:40.980Z,14136
2017-08-28T10:42:42.562Z,14224
2017-08-28T10:43:44.262Z,14236
2017-08-28T10:44:45.808Z,14276
2017-08-28T10:45:47.432Z,14208
2017-08-28T10:46:49.076Z,14232
2017-08-28T10:47:50.695Z,14264
2017-08-28T10:48:52.368Z,14408
2017-08-28T10:49:54.025Z,14588
2017-08-28T10:50:55.842Z,14756
2017-08-28T10:51:57.661Z,15004
2017-08-28T10:52:59.335Z,15392
2017-08-28T10:54:01.057Z,15872
2017-08-28T10:55:02.600Z,16512
2017-08-28T10:56:04.296Z,17600
2017-08-28T10:57:05.982Z,18688
2017-08-28T10:58:07.718Z,19424
2017-08-28T10:59:09.371Z,20096
2017-08-28T11:00:11.728Z,21248
2017-08-28T11:01:13.362Z,21792
2017-08-28T11:02:15.037Z,21568
2017-08-28T11:03:16.678Z,21440
2017-08-28T11:04:18.411Z,21600
2017-08-28T11:05:20.038Z,24864
2017-08-28T11:06:21.921Z,37824
2017-08-28T11:07:23.465Z,44736
2017-08-28T11:08:25.034Z,45120
2017-08-28T11:09:26.886Z,45408
2017-08-28T11:10:28.473Z,45664
2017-08-28T11:11:30.402Z,47392
2017-08-28T11:12:31.895Z,45664
2017-08-28T11:13:33.514Z,46080
2017-08-28T11:14:35.034Z,49024
2017-08-28T11:15:36.551Z,48960
2017-08-28T11:16:38.080Z,48896
2017-08-28T11:17:39.615Z,49120
2017-08-28T11:18:41.225Z,49632
2017-08-28T11:19:43.013Z,49056
2017-08-28T11:20:44.609Z,49760
2017-08-28T11:21:46.184Z,49280
2017-08-28T11:22:48.399Z,48480
2017-08-28T11:23:49.914Z,49344
2017-08-28T11:24:51.551Z,50112
2017-08-28T11:25:53.118Z,50944
2017-08-28T11:26:54.705Z,50560
2017-08-28T11:27:56.205Z,50144
2017-08-28T11:28:57.852Z,41280
2017-08-28T11:29:59.410Z,41824
2017-08-28T11:31:00.977Z,50080
2017-08-28T11:32:02.548Z,51584
2017-08-28T11:33:04.101Z,50752
2017-08-28T11:34:05.689Z,52064
2017-08-28T11:35:07.248Z,52800
2017-08-28T11:36:08.789Z,52960
2017-08-28T11:37:10.419Z,50912
2017-08-28T11:38:12.072Z,50528
2017-08-28T11:39:13.696Z,52992
2017-08-28T11:40:15.366Z,53024
2017-08-28T11:41:17.071Z,54176
2017-08-28T11:42:18.611Z,53856
2017-08-28T11:43:20.300Z,51232
2017-08-28T11:44:22.061Z,50848
2017-08-28T11:45:23.847Z,48928
2017-08-28T11:46:25.470Z,51040
2017-08-28T11:47:27.180Z,55680
2017-08-28T11:48:28.790Z,53280
2017-08-28T11:49:30.421Z,52064
2017-08-28T11:50:32.051Z,54400
2017-08-28T11:51:33.601Z,55232
2017-08-28T11:52:35.171Z,54528
2017-08-28T11:53:36.666Z,55072
2017-08-28T11:54:38.159Z,54208
2017-08-28T11:55:39.704Z,54432
2017-08-28T11:56:41.231Z,55808
2017-08-28T11:57:42.737Z,56320
2017-08-28T11:58:44.384Z,56704
2017-08-28T11:59:47.558Z,60320
2017-08-28T12:00:49.027Z,58272
2017-08-28T12:01:50.465Z,57408
2017-08-28T12:02:51.925Z,59104
2017-08-28T12:03:53.480Z,58976
2017-08-28T12:04:55.028Z,59520
2017-08-28T12:05:56.653Z,61600
2017-08-28T12:06:58.258Z,60064
2017-08-28T12:08:00.441Z,61280
2017-08-28T12:09:02.224Z,62656
2017-08-28T12:10:03.844Z,61472
2017-08-28T12:11:05.749Z,59360
2017-08-28T12:12:07.454Z,58144
2017-08-28T12:13:09.258Z,57312
2017-08-28T12:14:10.849Z,59488
2017-08-28T12:15:12.402Z,59616
2017-08-28T12:16:14.042Z,59968
2017-08-28T12:17:15.654Z,61472
2017-08-28T12:18:17.256Z,61152
2017-08-28T12:19:18.976Z,63456
2017-08-28T12:20:20.576Z,63744
2017-08-28T12:21:22.303Z,61920
2017-08-28T12:22:24.081Z,62016
2017-08-28T12:23:25.765Z,61344
2017-08-28T12:24:27.473Z,62432
2017-08-28T12:25:29.348Z,63776
2017-08-28T12:26:31.069Z,65312
2017-08-28T12:27:32.738Z,63200
2017-08-28T12:28:34.475Z,62624
2017-08-28T12:29:36.047Z,64448
2017-08-28T12:30:37.899Z,65088
2017-08-28T12:31:39.544Z,63328
2017-08-28T12:32:41.154Z,63744
2017-08-28T12:33:42.785Z,67008
2017-08-28T12:34:44.869Z,65248
2017-08-28T12:35:46.591Z,64672
2017-08-28T12:36:48.317Z,65120
2017-08-28T12:37:49.878Z,63072
2017-08-28T12:38:51.463Z,61408
2017-08-28T12:39:53.037Z,62464
2017-08-28T12:40:54.618Z,65632
2017-08-28T12:41:56.220Z,65760
2017-08-28T12:42:57.836Z,64224
2017-08-28T12:43:59.445Z,64096
2017-08-28T12:45:01.023Z,64288
2017-08-28T12:46:02.618Z,63136
2017-08-28T12:47:04.204Z,62656
2017-08-28T12:48:05.858Z,65376
2017-08-28T12:49:07.459Z,65184
2017-08-28T12:50:09.024Z,66080
2017-08-28T12:51:10.707Z,66976
2017-08-28T12:52:12.348Z,66528
2017-08-28T12:53:13.950Z,65344
2017-08-28T12:54:15.549Z,64288
2017-08-28T12:55:17.114Z,64832
2017-08-28T12:56:18.624Z,59200
2017-08-28T12:57:20.097Z,38816
2017-08-28T12:58:21.592Z,25824
2017-08-28T12:59:23.125Z,24480
2017-08-28T13:00:24.748Z,23680
2017-08-28T13:01:26.330Z,23328
2017-08-28T13:02:27.885Z,23040
2017-08-28T13:03:29.508Z,23168
2017-08-28T13:04:31.080Z,24256
2017-08-28T13:05:32.657Z,34912
2017-08-28T13:06:34.210Z,56448
2017-08-28T13:07:35.737Z,63968
2017-08-28T13:08:37.274Z,63680
2017-08-28T13:09:38.896Z,64672
2017-08-28T13:10:40.501Z,67168
2017-08-28T13:11:42.125Z,68928
2017-08-28T13:12:43.696Z,66048
2017-08-28T13:13:45.341Z,65312
2017-08-28T13:14:47.035Z,69632
2017-08-28T13:15:48.651Z,71168
2017-08-28T13:16:50.261Z,68672
2017-08-28T13:17:51.821Z,69824
2017-08-28T13:18:53.943Z,72736
2017-08-28T13:19:55.491Z,72000
2017-08-28T13:20:57.022Z,71136
2017-08-28T13:21:58.571Z,70944
2017-08-28T13:23:00.128Z,69088
2017-08-28T13:24:01.797Z,67200
2017-08-28T13:25:03.425Z,67648
2017-08-28T13:26:05.044Z,68960
2017-08-28T13:27:06.685Z,68544
2017-08-28T13:28:08.650Z,67136
2017-08-28T13:29:10.274Z,66976
2017-08-28T13:30:11.841Z,68544
2017-08-28T13:31:13.456Z,70144
2017-08-28T13:32:15.539Z,69952
2017-08-28T13:33:17.095Z,69280
2017-08-28T13:34:18.727Z,71392
2017-08-28T13:35:20.291Z,71776
2017-08-28T13:36:21.939Z,70528
2017-08-28T13:37:23.540Z,70976
2017-08-28T13:38:25.229Z,70784
2017-08-28T13:39:26.756Z,70624
2017-08-28T13:40:28.737Z,70112
2017-08-28T13:41:30.312Z,70464
2017-08-28T13:42:32.264Z,69728
2017-08-28T13:43:34.160Z,69920
2017-08-28T13:44:35.731Z,67776
2017-08-28T13:45:37.556Z,67680
2017-08-28T13:46:39.178Z,69312
2017-08-28T13:47:40.831Z,71040
2017-08-28T13:48:42.528Z,71840
2017-08-28T13:49:44.218Z,74048
2017-08-28T13:50:45.806Z,74688
2017-08-28T13:51:47.569Z,74880
2017-08-28T13:52:49.143Z,77152
2017-08-28T13:53:50.703Z,75872
2017-08-28T13:54:52.356Z,74176
2017-08-28T13:55:55.120Z,73888
2017-08-28T13:56:56.530Z,73120